Ultra Dynamic — 9V9499 — position and weather

sailwx.info

Track history (hours):
 
Tides and Currents Weather Stations Pressure Air Temp Water Temp Dewpoint Dewpoint Depression Visibility Wind Speed Wind Dir Waves Ship Positions

Ultra Dynamic

Last reported at 2018-Apr-21 04:00 UTC. Time now 2018-Apr-22 08:25 UTC.
Position N 16°48' E 056°58'.

Length 199 m; draft 13 m.

Type: Cargo ship. MMSI: 566157000.

Date/timePositionNaut miles runAvg speedWind from/ knotsBaromVisibWave heightAir tempDewpointWater temp
2018-Apr-21 04:00N 16°48' E 056°58'612.0
2018-Apr-21 03:29N 16°51' E 057°04'612.0
2018-Apr-21 02:58N 16°55' E 057°09'2512.0
2018-Apr-21 00:54N 17°11' E 057°29'611.8
2018-Apr-21 00:26N 17°15' E 057°33'611.9
2018-Apr-20 23:56N 17°19' E 057°38'24211.9
2018-Apr-20 03:35N 19°56' E 060°51'  
2018-Apr-13 16:10N 21°56' E 066°01'310.1
2018-Apr-13 15:53N 21°53' E 065°60'12310.6
2018-Apr-13 04:19N 19°55' E 065°22'514.0
2018-Apr-13 04:00N 19°51' E 065°20'713.7
2018-Apr-13 03:30N 19°44' E 065°19'612.2
2018-Apr-13 03:00N 19°39' E 065°17'611.8
2018-Apr-13 02:30N 19°33' E 065°15'611.9
2018-Apr-13 02:00N 19°27' E 065°13'612.0
2018-Apr-13 01:30N 19°22' E 065°11'5312.0
2018-Apr-12 21:06N 18°31' E 064°55'311.6
2018-Apr-12 20:53N 18°29' E 064°54'411.6
2018-Apr-12 20:30N 18°24' E 064°53'811.4
2018-Apr-12 19:46N 18°16' E 064°50'311.3
2018-Apr-12 19:30N 18°14' E 064°49'511.0
2018-Apr-12 19:00N 18°08' E 064°48'510.7
2018-Apr-12 18:30N 18°03' E 064°46'510.7
2018-Apr-12 18:00N 17°58' E 064°44'610.8
2018-Apr-12 17:26N 17°52' E 064°43'710.7
2018-Apr-12 16:44N 17°45' E 064°40'510.6
2018-Apr-12 16:16N 17°40' E 064°39'910.6
2018-Apr-12 15:28N 17°32' E 064°36'1410.5
2018-Apr-12 14:10N 17°19' E 064°32'210.5
2018-Apr-12 13:59N 17°17' E 064°32'810.5
2018-Apr-12 13:14N 17°10' E 064°29'310.6
2018-Apr-12 12:59N 17°07' E 064°29'510.6
2018-Apr-12 12:30N 17°02' E 064°27'910.6
2018-Apr-12 11:42N 16°54' E 064°24'210.6
2018-Apr-12 11:30N 16°52' E 064°24'5410.8
2018-Apr-12 06:31N 16°00' E 064°08'010.8
2018-Apr-12 06:29N 16°00' E 064°07'4910.8
2018-Apr-12 01:59N 15°13' E 063°53'510.9
2018-Apr-12 01:29N 15°08' E 063°51'510.9
2018-Apr-12 01:00N 15°03' E 063°50'710.7
2018-Apr-12 00:20N 14°57' E 063°48'410.8
2018-Apr-11 23:59N 14°53' E 063°46'1110.6
2018-Apr-11 22:54N 14°42' E 063°43'610.4
2018-Apr-11 22:17N 14°36' E 063°41'  
Track history (hours):
 
Tides and Currents Weather Stations Pressure Air Temp Water Temp Dewpoint Dewpoint Depression Visibility Wind Speed Wind Dir Waves Ship Positions

Ultra Dynamic

Last reported at 2018-Apr-21 04:00 UTC. Time now 2018-Apr-22 08:25 UTC.
Position N 16°48' E 056°58'.

Length 199 m; draft 13 m.

Type: Cargo ship. MMSI: 566157000.

Date/timePositionNaut miles runAvg speedWind from/ knotsBaromVisibWave heightAir tempDewpointWater temp
2018-Apr-21 04:00N 16°48' E 056°58'612.0
2018-Apr-21 03:29N 16°51' E 057°04'612.0
2018-Apr-21 02:58N 16°55' E 057°09'2512.0
2018-Apr-21 00:54N 17°11' E 057°29'611.8
2018-Apr-21 00:26N 17°15' E 057°33'611.9
2018-Apr-20 23:56N 17°19' E 057°38'24211.9
2018-Apr-20 03:35N 19°56' E 060°51'  
2018-Apr-13 16:10N 21°56' E 066°01'310.1
2018-Apr-13 15:53N 21°53' E 065°60'12310.6
2018-Apr-13 04:19N 19°55' E 065°22'514.0
2018-Apr-13 04:00N 19°51' E 065°20'713.7
2018-Apr-13 03:30N 19°44' E 065°19'612.2
2018-Apr-13 03:00N 19°39' E 065°17'611.8
2018-Apr-13 02:30N 19°33' E 065°15'611.9
2018-Apr-13 02:00N 19°27' E 065°13'612.0
2018-Apr-13 01:30N 19°22' E 065°11'5312.0
2018-Apr-12 21:06N 18°31' E 064°55'311.6
2018-Apr-12 20:53N 18°29' E 064°54'411.6
2018-Apr-12 20:30N 18°24' E 064°53'811.4
2018-Apr-12 19:46N 18°16' E 064°50'311.3
2018-Apr-12 19:30N 18°14' E 064°49'511.0
2018-Apr-12 19:00N 18°08' E 064°48'510.7
2018-Apr-12 18:30N 18°03' E 064°46'510.7
2018-Apr-12 18:00N 17°58' E 064°44'610.8
2018-Apr-12 17:26N 17°52' E 064°43'710.7
2018-Apr-12 16:44N 17°45' E 064°40'510.6
2018-Apr-12 16:16N 17°40' E 064°39'910.6
2018-Apr-12 15:28N 17°32' E 064°36'1410.5
2018-Apr-12 14:10N 17°19' E 064°32'210.5
2018-Apr-12 13:59N 17°17' E 064°32'810.5
2018-Apr-12 13:14N 17°10' E 064°29'310.6
2018-Apr-12 12:59N 17°07' E 064°29'510.6
2018-Apr-12 12:30N 17°02' E 064°27'910.6
2018-Apr-12 11:42N 16°54' E 064°24'210.6
2018-Apr-12 11:30N 16°52' E 064°24'5410.8
2018-Apr-12 06:31N 16°00' E 064°08'010.8
2018-Apr-12 06:29N 16°00' E 064°07'4910.8
2018-Apr-12 01:59N 15°13' E 063°53'510.9
2018-Apr-12 01:29N 15°08' E 063°51'510.9
2018-Apr-12 01:00N 15°03' E 063°50'710.7
2018-Apr-12 00:20N 14°57' E 063°48'410.8
2018-Apr-11 23:59N 14°53' E 063°46'1110.6
2018-Apr-11 22:54N 14°42' E 063°43'610.4
2018-Apr-11 22:17N 14°36' E 063°41'  

Dump ship's entire track history